createdAt,value
2018-08-04T00:00:20.223Z,29.55
2018-08-04T00:02:50.896Z,29.52
2018-08-04T00:05:21.213Z,29.48
2018-08-04T00:07:51.261Z,29.46
2018-08-04T00:10:22.125Z,29.43
2018-08-04T00:12:53.238Z,29.40
2018-08-04T00:15:23.531Z,29.37
2018-08-04T00:17:53.823Z,29.33
2018-08-04T00:20:24.056Z,29.31
2018-08-04T00:22:54.196Z,29.28
2018-08-04T00:25:24.403Z,29.24
2018-08-04T00:27:54.978Z,29.20
2018-08-04T00:30:25.752Z,29.16
2018-08-04T00:32:56.218Z,29.14
2018-08-04T00:35:26.139Z,29.11
2018-08-04T00:37:56.282Z,29.08
2018-08-04T00:40:26.553Z,29.06
2018-08-04T00:42:57.236Z,29.03
2018-08-04T00:45:27.780Z,29.00
2018-08-04T00:47:58.299Z,28.96
2018-08-04T00:50:28.458Z,28.93
2018-08-04T00:52:58.782Z,28.89
2018-08-04T00:55:29.020Z,28.88
2018-08-04T00:57:59.160Z,28.85
2018-08-04T01:00:29.370Z,28.83
2018-08-04T01:03:00.444Z,28.79
2018-08-04T01:05:30.643Z,28.76
2018-08-04T01:08:01.278Z,28.74
2018-08-04T01:10:31.399Z,28.72
2018-08-04T01:13:02.164Z,28.69
2018-08-04T01:15:33.036Z,28.68
2018-08-04T01:18:03.531Z,28.67
2018-08-04T01:20:33.772Z,28.66
2018-08-04T01:23:03.851Z,28.66
2018-08-04T01:25:34.140Z,28.64
2018-08-04T01:28:04.378Z,28.62
2018-08-04T01:30:35.304Z,28.62
2018-08-04T01:33:05.543Z,28.59
2018-08-04T01:35:35.930Z,28.57
2018-08-04T01:38:06.166Z,28.56
2018-08-04T01:40:37.322Z,28.55
2018-08-04T01:43:07.575Z,28.54
2018-08-04T01:45:37.801Z,28.53
2018-08-04T01:48:08.125Z,28.52
2018-08-04T01:50:38.222Z,28.49
2018-08-04T01:53:08.848Z,28.45
2018-08-04T01:55:38.886Z,28.42
2018-08-04T01:58:09.109Z,28.41
2018-08-04T02:00:40.224Z,28.39
2018-08-04T02:03:10.396Z,28.36
2018-08-04T02:05:41.047Z,28.35
2018-08-04T02:08:11.407Z,28.34
2018-08-04T02:10:41.754Z,28.33
2018-08-04T02:13:12.016Z,28.32
2018-08-04T02:15:42.288Z,28.30
2018-08-04T02:18:12.646Z,28.28
2018-08-04T02:20:43.463Z,28.25
2018-08-04T02:23:14.970Z,28.26
2018-08-04T02:25:44.985Z,28.23
2018-08-04T02:28:15.399Z,28.22
2018-08-04T02:30:46.378Z,28.22
2018-08-04T02:33:16.795Z,28.20
2018-08-04T02:35:47.013Z,28.18
2018-08-04T02:38:17.197Z,28.15
2018-08-04T02:40:47.530Z,28.13
2018-08-04T02:43:17.955Z,28.11
2018-08-04T02:45:48.145Z,28.07
2018-08-04T02:48:18.355Z,28.04
2018-08-04T02:50:48.754Z,28.00
2018-08-04T02:53:18.876Z,27.97
2018-08-04T02:55:49.134Z,27.94
2018-08-04T02:58:19.462Z,27.94
2018-08-04T03:00:50.461Z,27.93
2018-08-04T03:03:21.371Z,27.91
2018-08-04T03:05:51.585Z,27.90
2018-08-04T03:08:21.915Z,27.89
2018-08-04T03:10:52.134Z,27.88
2018-08-04T03:13:22.555Z,27.86
2018-08-04T03:15:52.858Z,27.82
2018-08-04T03:18:23.183Z,27.79
2018-08-04T03:20:53.509Z,27.77
2018-08-04T03:23:23.934Z,27.76
2018-08-04T03:25:54.194Z,27.76
2018-08-04T03:28:24.513Z,27.75
2018-08-04T03:30:54.795Z,27.74
2018-08-04T03:33:25.030Z,27.74
2018-08-04T03:35:55.311Z,27.73
2018-08-04T03:38:25.682Z,27.72
2018-08-04T03:40:55.964Z,27.71
2018-08-04T03:43:26.500Z,27.68
2018-08-04T03:45:56.666Z,27.65
2018-08-04T03:48:26.823Z,27.63
2018-08-04T03:50:57.216Z,27.61
2018-08-04T03:53:27.375Z,27.58
2018-08-04T03:55:57.566Z,27.57
2018-08-04T03:58:27.761Z,27.57
2018-08-04T04:00:58.244Z,27.58
2018-08-04T04:03:28.743Z,27.61
2018-08-04T04:05:59.528Z,27.64
2018-08-04T04:08:30.163Z,27.64
2018-08-04T04:11:04.532Z,27.65
2018-08-04T04:13:34.879Z,27.67
2018-08-04T04:16:05.313Z,27.68
2018-08-04T04:18:35.680Z,27.69
2018-08-04T04:21:05.902Z,27.70
2018-08-04T04:23:36.307Z,27.69
2018-08-04T04:26:06.554Z,27.71
2018-08-04T04:28:36.799Z,27.73
2018-08-04T04:31:08.059Z,27.73
2018-08-04T04:33:38.448Z,27.73
2018-08-04T04:36:08.559Z,27.74
2018-08-04T04:38:39.055Z,27.74
2018-08-04T04:41:09.279Z,27.73
2018-08-04T04:43:39.919Z,27.72
2018-08-04T04:46:10.255Z,27.72
2018-08-04T04:48:40.578Z,27.72
2018-08-04T04:51:10.901Z,27.72
2018-08-04T04:53:41.199Z,27.71
2018-08-04T04:56:11.406Z,27.71
2018-08-04T04:58:41.573Z,27.71
2018-08-04T05:01:13.547Z,27.72
2018-08-04T05:03:44.127Z,27.69
2018-08-04T05:06:14.723Z,27.71
2018-08-04T05:08:45.001Z,27.72
2018-08-04T05:11:15.456Z,27.75
2018-08-04T05:13:45.922Z,27.78
2018-08-04T05:16:15.994Z,27.81
2018-08-04T05:18:46.225Z,27.80
2018-08-04T05:21:16.433Z,27.82
2018-08-04T05:23:46.291Z,27.83
2018-08-04T05:26:16.921Z,27.85
2018-08-04T05:28:48.476Z,27.87
2018-08-04T05:31:18.742Z,27.88
2018-08-04T05:33:49.538Z,27.92
2018-08-04T05:36:19.701Z,27.93
2018-08-04T05:38:49.918Z,27.98
2018-08-04T05:41:20.544Z,28.04
2018-08-04T05:43:51.021Z,28.06
2018-08-04T05:46:24.130Z,28.09
2018-08-04T05:48:56.136Z,28.10
2018-08-04T05:51:26.224Z,28.12
2018-08-04T05:53:56.411Z,28.12
2018-08-04T05:56:26.552Z,28.14
2018-08-04T05:58:56.761Z,28.16
2018-08-04T06:01:27.126Z,28.20
2018-08-04T06:03:57.424Z,28.25
2018-08-04T06:06:28.391Z,28.32
2018-08-04T06:08:58.634Z,28.37
2018-08-04T06:11:28.970Z,28.39
2018-08-04T06:13:59.196Z,28.37
2018-08-04T06:16:29.278Z,28.36
2018-08-04T06:18:59.572Z,28.35
2018-08-04T06:21:29.689Z,28.36
2018-08-04T06:23:59.898Z,28.39
2018-08-04T06:26:30.138Z,28.43
2018-08-04T06:29:00.448Z,28.49
2018-08-04T06:31:30.646Z,28.50
2018-08-04T06:34:00.993Z,28.52
2018-08-04T06:36:31.599Z,28.55
2018-08-04T06:39:02.064Z,28.56
2018-08-04T06:41:32.379Z,28.59
2018-08-04T06:44:02.735Z,28.62
2018-08-04T06:46:33.277Z,28.64
2018-08-04T06:49:08.377Z,28.69
2018-08-04T06:51:38.776Z,28.72
2018-08-04T06:54:09.251Z,28.77
2018-08-04T06:56:40.197Z,28.82
2018-08-04T06:59:10.466Z,28.86
2018-08-04T07:01:40.753Z,28.89
2018-08-04T07:04:10.903Z,28.94
2018-08-04T07:06:41.103Z,28.98
2018-08-04T07:09:11.585Z,29.03
2018-08-04T07:11:41.882Z,29.09
2018-08-04T07:14:12.481Z,29.15
2018-08-04T07:16:42.694Z,29.21
2018-08-04T07:19:12.833Z,29.25
2018-08-04T07:21:42.986Z,29.30
2018-08-04T07:24:13.075Z,29.35
2018-08-04T07:26:43.817Z,29.39
2018-08-04T07:29:14.269Z,29.42
2018-08-04T07:31:45.411Z,29.46
2018-08-04T07:34:15.577Z,29.49
2018-08-04T07:36:46.140Z,29.52
2018-08-04T07:39:16.391Z,29.54
2018-08-04T07:41:46.620Z,29.58
2018-08-04T07:44:17.208Z,29.59
2018-08-04T07:46:47.892Z,29.62
2018-08-04T07:49:18.183Z,29.64
2018-08-04T07:51:48.076Z,29.64
2018-08-04T07:54:18.567Z,29.64
2018-08-04T07:56:48.727Z,29.64
2018-08-04T07:59:19.346Z,29.67
2018-08-04T08:01:49.972Z,29.71
2018-08-04T08:04:19.978Z,29.74
2018-08-04T08:06:50.124Z,29.76
2018-08-04T08:09:20.371Z,29.76
2018-08-04T08:11:50.683Z,29.77
2018-08-04T08:14:20.739Z,29.80
2018-08-04T08:16:50.872Z,29.84
2018-08-04T08:19:21.315Z,29.85
2018-08-04T08:21:51.804Z,29.87
2018-08-04T08:24:22.012Z,29.91
2018-08-04T08:26:52.245Z,29.92
2018-08-04T08:29:22.014Z,29.96
2018-08-04T08:31:52.310Z,30.01
2018-08-04T08:34:22.695Z,30.06
2018-08-04T08:36:53.589Z,30.11
2018-08-04T08:39:23.948Z,30.17
2018-08-04T08:41:54.244Z,30.20
2018-08-04T08:44:24.416Z,30.23
2018-08-04T08:46:54.886Z,30.25
2018-08-04T08:49:24.817Z,30.29
2018-08-04T08:51:55.102Z,30.34
2018-08-04T08:54:25.407Z,30.38
2018-08-04T08:56:55.831Z,30.43
2018-08-04T08:59:26.648Z,30.46
2018-08-04T09:01:56.815Z,30.51
2018-08-04T09:04:27.097Z,30.55
2018-08-04T09:06:57.158Z,30.62
2018-08-04T09:09:27.434Z,30.67
2018-08-04T09:11:57.546Z,30.70
2018-08-04T09:14:27.883Z,30.76
2018-08-04T09:16:59.287Z,30.80
2018-08-04T09:19:29.534Z,30.87
2018-08-04T09:22:00.122Z,30.94
2018-08-04T09:24:30.578Z,31.01
2018-08-04T09:27:00.768Z,31.09
2018-08-04T09:29:31.000Z,31.16
2018-08-04T09:32:00.964Z,31.22
2018-08-04T09:34:31.315Z,31.32
2018-08-04T09:37:01.759Z,31.40
2018-08-04T09:39:32.450Z,31.47
2018-08-04T09:42:02.973Z,31.54
2018-08-04T09:44:33.217Z,31.61
2018-08-04T09:47:03.340Z,31.69
2018-08-04T09:49:33.412Z,31.76
2018-08-04T09:52:03.571Z,31.84
2018-08-04T09:54:33.858Z,31.93
2018-08-04T09:57:04.305Z,32.02
2018-08-04T09:59:34.559Z,32.10
2018-08-04T10:02:10.713Z,32.16
2018-08-04T10:04:41.372Z,32.23
2018-08-04T10:07:11.735Z,32.33
2018-08-04T10:09:41.890Z,32.41
2018-08-04T10:12:12.083Z,32.50
2018-08-04T10:14:42.200Z,32.60
2018-08-04T10:17:12.802Z,32.67
2018-08-04T10:19:43.126Z,32.75
2018-08-04T10:22:14.231Z,32.83
2018-08-04T10:24:44.251Z,32.90
2018-08-04T10:27:14.356Z,32.99
2018-08-04T10:29:44.367Z,33.07
2018-08-04T10:32:15.127Z,33.15
2018-08-04T10:34:45.322Z,33.18
2018-08-04T10:37:15.563Z,33.24
2018-08-04T10:39:45.546Z,33.31
2018-08-04T10:42:15.819Z,33.39
2018-08-04T10:44:46.654Z,33.46
2018-08-04T10:47:17.310Z,33.54
2018-08-04T10:49:47.675Z,33.66
2018-08-04T10:52:17.846Z,33.76
2018-08-04T10:54:47.993Z,33.88
2018-08-04T10:57:18.079Z,34.00
2018-08-04T10:59:48.662Z,34.08
2018-08-04T11:02:18.725Z,34.16
2018-08-04T11:04:49.236Z,34.23
2018-08-04T11:07:19.515Z,34.32
2018-08-04T11:09:49.476Z,34.41
2018-08-04T11:12:19.243Z,34.45
2018-08-04T11:14:49.700Z,34.45
2018-08-04T11:17:19.388Z,34.40
2018-08-04T11:19:50.456Z,34.39
2018-08-04T11:22:20.607Z,34.38
2018-08-04T11:24:50.811Z,34.33
2018-08-04T11:27:21.449Z,34.27
2018-08-04T11:29:51.730Z,34.19
2018-08-04T11:32:22.668Z,34.17
2018-08-04T11:34:52.997Z,34.18
2018-08-04T11:37:22.843Z,34.15
2018-08-04T11:39:53.183Z,34.15
2018-08-04T11:42:23.454Z,34.18
2018-08-04T11:44:54.036Z,34.20
2018-08-04T11:47:23.899Z,34.20
2018-08-04T11:49:54.793Z,34.21
2018-08-04T11:52:24.785Z,34.26
2018-08-04T11:54:55.058Z,34.31
2018-08-04T11:57:25.105Z,34.37
2018-08-04T11:59:55.003Z,34.46
2018-08-04T12:02:24.962Z,34.54
2018-08-04T12:04:55.171Z,34.59
2018-08-04T12:07:25.223Z,34.66
2018-08-04T12:09:55.400Z,34.71
2018-08-04T12:12:25.189Z,34.75
2018-08-04T12:14:55.480Z,34.77
2018-08-04T12:17:25.399Z,34.73
2018-08-04T12:19:56.178Z,34.71
2018-08-04T12:22:26.069Z,34.73
2018-08-04T12:24:56.788Z,34.73
2018-08-04T12:27:26.821Z,34.70
2018-08-04T12:29:57.355Z,34.68
2018-08-04T12:32:27.962Z,34.66
2018-08-04T12:34:58.101Z,34.63
2018-08-04T12:37:27.929Z,34.61
2018-08-04T12:39:58.393Z,34.58
2018-08-04T12:42:28.678Z,34.49
2018-08-04T12:44:58.945Z,34.41
2018-08-04T12:47:29.232Z,34.40
2018-08-04T12:49:59.415Z,34.44
2018-08-04T12:52:29.403Z,34.51
2018-08-04T12:54:59.120Z,34.60
2018-08-04T12:57:28.961Z,34.71
2018-08-04T12:59:59.146Z,34.84
2018-08-04T13:02:29.026Z,34.97
2018-08-04T13:04:59.497Z,35.11
2018-08-04T13:07:29.640Z,35.22
2018-08-04T13:09:59.479Z,35.34
2018-08-04T13:12:29.587Z,35.42
2018-08-04T13:14:59.573Z,35.47
2018-08-04T13:17:29.602Z,35.54
2018-08-04T13:19:59.637Z,35.58
2018-08-04T13:22:29.563Z,35.59
2018-08-04T13:24:59.379Z,35.61
2018-08-04T13:27:29.399Z,35.61
2018-08-04T13:29:59.452Z,35.65
2018-08-04T13:32:29.260Z,35.71
2018-08-04T13:34:59.113Z,35.81
2018-08-04T13:37:28.986Z,35.90
2018-08-04T13:39:59.039Z,35.97
2018-08-04T13:42:28.837Z,36.02
2018-08-04T13:44:59.963Z,36.08
2018-08-04T13:47:29.996Z,36.12
2018-08-04T13:50:00.682Z,36.15
2018-08-04T13:52:30.446Z,36.19
2018-08-04T13:55:00.352Z,36.22
2018-08-04T13:57:30.299Z,36.23
2018-08-04T14:00:00.043Z,36.26
2018-08-04T14:02:30.217Z,36.24
2018-08-04T14:05:00.294Z,36.21
2018-08-04T14:07:30.726Z,36.21
2018-08-04T14:10:00.583Z,36.26
2018-08-04T14:12:30.665Z,36.25
2018-08-04T14:15:00.678Z,36.23
2018-08-04T14:17:31.831Z,36.25
2018-08-04T14:20:02.359Z,36.32
2018-08-04T14:22:32.071Z,36.38
2018-08-04T14:25:02.889Z,36.43
2018-08-04T14:27:32.993Z,36.50
2018-08-04T14:30:03.042Z,36.55
2018-08-04T14:32:32.822Z,36.60
2018-08-04T14:35:02.966Z,36.65
2018-08-04T14:37:33.229Z,36.70
2018-08-04T14:40:03.154Z,36.75
2018-08-04T14:42:33.364Z,36.78
2018-08-04T14:45:03.446Z,36.82
2018-08-04T14:47:33.387Z,36.85
2018-08-04T14:50:03.620Z,36.89
2018-08-04T14:52:33.684Z,36.94
2018-08-04T14:55:03.768Z,36.95
2018-08-04T14:57:33.728Z,36.96
2018-08-04T15:00:03.673Z,36.99
2018-08-04T15:02:33.536Z,37.04
2018-08-04T15:05:03.536Z,37.06
2018-08-04T15:07:33.736Z,37.09
2018-08-04T15:10:04.474Z,37.13
2018-08-04T15:12:34.818Z,37.17
2018-08-04T15:15:05.110Z,37.21
2018-08-04T15:17:35.071Z,37.23
2018-08-04T15:20:06.435Z,37.25
2018-08-04T15:22:36.730Z,37.28
2018-08-04T15:25:07.093Z,37.28
2018-08-04T15:27:36.938Z,37.27
2018-08-04T15:30:07.374Z,37.27
2018-08-04T15:32:37.131Z,37.27
2018-08-04T15:35:07.520Z,37.26
2018-08-04T15:37:37.376Z,37.27
2018-08-04T15:40:07.271Z,37.28
2018-08-04T15:42:37.129Z,37.31
2018-08-04T15:45:07.005Z,37.32
2018-08-04T15:47:37.359Z,37.34
2018-08-04T15:50:07.570Z,37.34
2018-08-04T15:52:37.903Z,37.36
2018-08-04T15:55:07.675Z,37.33
2018-08-04T15:57:37.532Z,37.32
2018-08-04T16:00:08.803Z,37.32
2018-08-04T16:02:38.754Z,37.29
2018-08-04T16:05:08.881Z,37.28
2018-08-04T16:07:45.505Z,37.29
2018-08-04T16:10:15.526Z,37.30
2018-08-04T16:12:45.217Z,37.31
2018-08-04T16:15:15.081Z,37.28
2018-08-04T16:17:44.951Z,37.21
2018-08-04T16:20:16.384Z,37.19
2018-08-04T16:22:46.298Z,37.18
2018-08-04T16:25:16.633Z,37.16
2018-08-04T16:27:47.101Z,37.14
2018-08-04T16:30:16.861Z,37.09
2018-08-04T16:32:46.700Z,37.02
2018-08-04T16:35:16.741Z,36.96
2018-08-04T16:37:47.364Z,36.90
2018-08-04T16:40:17.467Z,36.87
2018-08-04T16:42:47.345Z,36.82
2018-08-04T16:45:17.362Z,36.78
2018-08-04T16:47:48.146Z,36.74
2018-08-04T16:50:18.144Z,36.67
2018-08-04T16:52:47.970Z,36.62
2018-08-04T16:55:17.786Z,36.55
2018-08-04T16:57:47.842Z,36.49
2018-08-04T17:00:17.767Z,36.43
2018-08-04T17:02:48.747Z,36.37
2018-08-04T17:05:18.690Z,36.31
2018-08-04T17:07:48.876Z,36.26
2018-08-04T17:10:19.402Z,36.17
2018-08-04T17:12:49.326Z,36.11
2018-08-04T17:15:19.257Z,36.05
2018-08-04T17:17:49.016Z,35.99
2018-08-04T17:20:18.851Z,35.90
2018-08-04T17:22:48.741Z,35.83
2018-08-04T17:25:18.832Z,35.77
2018-08-04T17:27:48.670Z,35.70
2018-08-04T17:30:18.469Z,35.64
2018-08-04T17:32:48.465Z,35.59
2018-08-04T17:35:18.376Z,35.52
2018-08-04T17:37:48.279Z,35.48
2018-08-04T17:40:18.399Z,35.43
2018-08-04T17:42:48.306Z,35.36
2018-08-04T17:45:18.154Z,35.28
2018-08-04T17:47:48.362Z,35.16
2018-08-04T17:50:18.097Z,35.07
2018-08-04T17:52:49.836Z,34.99
2018-08-04T17:55:19.766Z,34.89
2018-08-04T17:57:49.627Z,34.78
2018-08-04T18:00:19.574Z,34.70
2018-08-04T18:02:49.365Z,34.61
2018-08-04T18:05:19.684Z,34.51
2018-08-04T18:07:49.918Z,34.43
2018-08-04T18:10:20.085Z,34.34
2018-08-04T18:12:49.852Z,34.27
2018-08-04T18:15:19.697Z,34.18
2018-08-04T18:17:49.510Z,34.12
2018-08-04T18:20:19.436Z,34.04
2018-08-04T18:22:49.853Z,33.96
2018-08-04T18:25:19.790Z,33.87
2018-08-04T18:27:49.737Z,33.79
2018-08-04T18:30:19.629Z,33.72
2018-08-04T18:32:49.726Z,33.63
2018-08-04T18:35:19.795Z,33.54
2018-08-04T18:37:49.913Z,33.46
2018-08-04T18:40:20.331Z,33.39
2018-08-04T18:42:50.310Z,33.30
2018-08-04T18:45:20.145Z,33.22
2018-08-04T18:47:50.139Z,33.14
2018-08-04T18:50:20.232Z,33.08
2018-08-04T18:52:50.146Z,33.00
2018-08-04T18:55:20.270Z,32.92
2018-08-04T18:57:50.662Z,32.86
2018-08-04T19:00:20.953Z,32.81
2018-08-04T19:02:50.950Z,32.76
2018-08-04T19:05:21.302Z,32.69
2018-08-04T19:07:51.037Z,32.62
2018-08-04T19:10:21.069Z,32.57
2018-08-04T19:12:51.075Z,32.50
2018-08-04T19:15:21.127Z,32.43
2018-08-04T19:17:51.071Z,32.37
2018-08-04T19:20:20.902Z,32.31
2018-08-04T19:22:50.919Z,32.25
2018-08-04T19:25:21.011Z,32.19
2018-08-04T19:27:50.935Z,32.15
2018-08-04T19:30:20.880Z,32.10
2018-08-04T19:32:50.760Z,32.05
2018-08-04T19:35:21.717Z,32.00
2018-08-04T19:37:51.674Z,31.95
2018-08-04T19:40:21.486Z,31.89
2018-08-04T19:42:51.531Z,31.85
2018-08-04T19:45:21.486Z,31.79
2018-08-04T19:47:51.498Z,31.76
2018-08-04T19:50:21.724Z,31.72
2018-08-04T19:52:51.873Z,31.67
2018-08-04T19:55:22.655Z,31.64
2018-08-04T19:57:53.102Z,31.58
2018-08-04T20:00:23.124Z,31.56
2018-08-04T20:02:53.043Z,31.51
2018-08-04T20:05:22.810Z,31.47
2018-08-04T20:07:53.151Z,31.44
2018-08-04T20:10:23.248Z,31.40
2018-08-04T20:12:53.235Z,31.37
2018-08-04T20:15:23.666Z,31.33
2018-08-04T20:18:00.013Z,31.31
2018-08-04T20:20:29.869Z,31.26
2018-08-04T20:23:00.014Z,31.22
2018-08-04T20:25:29.901Z,31.19
2018-08-04T20:27:59.917Z,31.17
2018-08-04T20:30:29.864Z,31.14
2018-08-04T20:32:59.909Z,31.12
2018-08-04T20:35:30.858Z,31.10
2018-08-04T20:38:01.069Z,31.08
2018-08-04T20:40:31.453Z,31.05
2018-08-04T20:43:01.303Z,31.02
2018-08-04T20:45:31.235Z,30.99
2018-08-04T20:48:01.260Z,30.95
2018-08-04T20:50:31.295Z,30.92
2018-08-04T20:53:01.159Z,30.89
2018-08-04T20:55:31.220Z,30.86
2018-08-04T20:58:01.089Z,30.83
2018-08-04T21:00:36.530Z,30.79
2018-08-04T21:03:06.353Z,30.76
2018-08-04T21:05:36.454Z,30.73
2018-08-04T21:08:06.687Z,30.72
2018-08-04T21:10:36.622Z,30.69
2018-08-04T21:13:06.393Z,30.67
2018-08-04T21:15:36.604Z,30.64
2018-08-04T21:18:06.646Z,30.62
2018-08-04T21:20:36.488Z,30.59
2018-08-04T21:23:06.654Z,30.57
2018-08-04T21:25:36.715Z,30.56
2018-08-04T21:28:06.625Z,30.53
2018-08-04T21:30:36.571Z,30.51
2018-08-04T21:33:06.790Z,30.48
2018-08-04T21:35:37.087Z,30.46
2018-08-04T21:38:07.076Z,30.45
2018-08-04T21:40:37.307Z,30.44
2018-08-04T21:43:07.208Z,30.43
2018-08-04T21:45:37.268Z,30.42
2018-08-04T21:48:07.288Z,30.41
2018-08-04T21:50:37.447Z,30.39
2018-08-04T21:53:07.600Z,30.37
2018-08-04T21:55:38.598Z,30.34
2018-08-04T21:58:10.050Z,30.32
2018-08-04T22:00:44.991Z,30.30
2018-08-04T22:03:15.017Z,30.29
2018-08-04T22:05:45.045Z,30.28
2018-08-04T22:08:25.526Z,30.27
2018-08-04T22:10:55.280Z,30.25
2018-08-04T22:13:25.075Z,30.24
2018-08-04T22:15:55.927Z,30.24
2018-08-04T22:18:26.403Z,30.22
2018-08-04T22:20:56.584Z,30.20
2018-08-04T22:23:26.499Z,30.18
2018-08-04T22:25:57.795Z,30.13
2018-08-04T22:28:27.639Z,30.10
2018-08-04T22:30:57.731Z,30.06
2018-08-04T22:33:27.642Z,30.01
2018-08-04T22:35:58.375Z,29.96
2018-08-04T22:38:28.201Z,29.94
2018-08-04T22:40:58.333Z,29.93
2018-08-04T22:43:29.858Z,29.92
2018-08-04T22:46:02.749Z,29.91
2018-08-04T22:48:32.692Z,29.91
2018-08-04T22:51:07.900Z,29.88
2018-08-04T22:53:38.111Z,29.85
2018-08-04T22:56:08.380Z,29.84
2018-08-04T22:58:38.332Z,29.83
2018-08-04T23:01:08.524Z,29.82
2018-08-04T23:03:38.940Z,29.82
2018-08-04T23:06:09.291Z,29.81
2018-08-04T23:08:39.245Z,29.82
2018-08-04T23:11:09.195Z,29.82
2018-08-04T23:13:39.097Z,29.82
2018-08-04T23:16:08.975Z,29.81
2018-08-04T23:18:39.460Z,29.79
2018-08-04T23:21:09.661Z,29.76
2018-08-04T23:23:39.606Z,29.71
2018-08-04T23:26:09.512Z,29.66
2018-08-04T23:28:39.419Z,29.62
2018-08-04T23:31:09.319Z,29.59
2018-08-04T23:33:39.387Z,29.57
2018-08-04T23:36:09.070Z,29.56
2018-08-04T23:38:39.274Z,29.54
2018-08-04T23:41:09.544Z,29.52
2018-08-04T23:43:40.423Z,29.51
2018-08-04T23:46:10.270Z,29.51
2018-08-04T23:48:40.077Z,29.51
2018-08-04T23:51:10.793Z,29.47
2018-08-04T23:53:40.824Z,29.43
2018-08-04T23:56:10.914Z,29.38
2018-08-04T23:58:40.831Z,29.35
